sensor_id;sensor_type;location;lat;lon;timestamp;pressure;altitude;pressure_sealevel;temperature;humidity
52032;BME280;38044;45.148;39.604;2024-02-15T00:01:02;100895.53;;;7.07;90.18
52032;BME280;38044;45.148;39.604;2024-02-15T00:03:30;100895.53;;;7.07;90.58
52032;BME280;38044;45.148;39.604;2024-02-15T00:05:57;100891.50;;;7.05;90.67
52032;BME280;38044;45.148;39.604;2024-02-15T00:08:23;100883.72;;;7.03;90.75
52032;BME280;38044;45.148;39.604;2024-02-15T00:10:50;100872.72;;;6.94;90.87
52032;BME280;38044;45.148;39.604;2024-02-15T00:13:16;100885.59;;;7.03;90.92
52032;BME280;38044;45.148;39.604;2024-02-15T00:15:42;100878.38;;;7.03;90.93
52032;BME280;38044;45.148;39.604;2024-02-15T00:18:08;100880.78;;;6.99;91.13
52032;BME280;38044;45.148;39.604;2024-02-15T00:20:33;100862.31;;;6.93;91.22
52032;BME280;38044;45.148;39.604;2024-02-15T00:23:00;100861.00;;;6.95;91.34
52032;BME280;38044;45.148;39.604;2024-02-15T00:25:26;100880.75;;;6.94;91.80
52032;BME280;38044;45.148;39.604;2024-02-15T00:27:52;100863.88;;;6.89;91.73
52032;BME280;38044;45.148;39.604;2024-02-15T00:30:17;100863.66;;;7.00;91.53
52032;BME280;38044;45.148;39.604;2024-02-15T00:32:43;100869.00;;;7.00;91.60
52032;BME280;38044;45.148;39.604;2024-02-15T00:35:11;100877.06;;;7.06;91.57
52032;BME280;38044;45.148;39.604;2024-02-15T00:37:40;100850.59;;;6.99;91.50
52032;BME280;38044;45.148;39.604;2024-02-15T00:40:07;100857.25;;;6.96;91.51
52032;BME280;38044;45.148;39.604;2024-02-15T00:42:34;100879.78;;;7.11;91.38
52032;BME280;38044;45.148;39.604;2024-02-15T00:45:00;100876.03;;;7.12;91.34
52032;BME280;38044;45.148;39.604;2024-02-15T00:47:26;100860.50;;;7.09;91.18
52032;BME280;38044;45.148;39.604;2024-02-15T00:49:52;100860.78;;;7.07;90.90
52032;BME280;38044;45.148;39.604;2024-02-15T00:52:18;100879.31;;;7.24;90.47
52032;BME280;38044;45.148;39.604;2024-02-15T00:54:45;100874.97;;;7.18;90.14
52032;BME280;38044;45.148;39.604;2024-02-15T00:57:11;100888.88;;;7.15;90.23
52032;BME280;38044;45.148;39.604;2024-02-15T00:59:37;100881.94;;;7.14;89.84
52032;BME280;38044;45.148;39.604;2024-02-15T01:02:03;100897.41;;;7.12;89.51
52032;BME280;38044;45.148;39.604;2024-02-15T01:04:30;100879.78;;;7.11;89.84
52032;BME280;38044;45.148;39.604;2024-02-15T01:06:56;100873.28;;;6.96;89.51
52032;BME280;38044;45.148;39.604;2024-02-15T01:09:22;100886.69;;;7.02;89.12
52032;BME280;38044;45.148;39.604;2024-02-15T01:11:48;100881.84;;;6.98;89.03
52032;BME280;38044;45.148;39.604;2024-02-15T01:14:15;100879.19;;;6.98;89.08
52032;BME280;38044;45.148;39.604;2024-02-15T01:16:42;100866.81;;;6.92;89.14
52032;BME280;38044;45.148;39.604;2024-02-15T01:19:09;100878.63;;;6.96;89.09
52032;BME280;38044;45.148;39.604;2024-02-15T01:21:35;100883.38;;;6.89;89.22
52032;BME280;38044;45.148;39.604;2024-02-15T01:24:02;100889.31;;;6.96;88.70
52032;BME280;38044;45.148;39.604;2024-02-15T01:26:29;100881.78;;;6.88;88.92
52032;BME280;38044;45.148;39.604;2024-02-15T01:28:58;100890.06;;;6.87;88.72
52032;BME280;38044;45.148;39.604;2024-02-15T01:31:23;100872.06;;;6.72;88.86
52032;BME280;38044;45.148;39.604;2024-02-15T01:33:49;100885.72;;;6.81;88.83
52032;BME280;38044;45.148;39.604;2024-02-15T01:36:16;100885.44;;;6.77;88.92
52032;BME280;38044;45.148;39.604;2024-02-15T01:38:43;100892.41;;;6.78;89.00
52032;BME280;38044;45.148;39.604;2024-02-15T01:41:10;100885.97;;;6.74;88.57
52032;BME280;38044;45.148;39.604;2024-02-15T01:43:37;100866.69;;;6.67;88.87
52032;BME280;38044;45.148;39.604;2024-02-15T01:46:08;100897.50;;;6.80;88.58
52032;BME280;38044;45.148;39.604;2024-02-15T01:48:39;100896.66;;;6.74;88.64
52032;BME280;38044;45.148;39.604;2024-02-15T01:51:07;100900.09;;;6.69;88.46
52032;BME280;38044;45.148;39.604;2024-02-15T01:53:33;100881.28;;;6.54;88.95
52032;BME280;38044;45.148;39.604;2024-02-15T01:56:00;100899.28;;;6.69;88.51
52032;BME280;38044;45.148;39.604;2024-02-15T01:58:26;100883.44;;;6.57;88.66
52032;BME280;38044;45.148;39.604;2024-02-15T02:00:56;100906.25;;;6.70;88.77
52032;BME280;38044;45.148;39.604;2024-02-15T02:03:22;100902.47;;;6.66;88.92
52032;BME280;38044;45.148;39.604;2024-02-15T02:05:48;100910.19;;;6.62;88.80
52032;BME280;38044;45.148;39.604;2024-02-15T02:08:14;100912.91;;;6.67;88.71
52032;BME280;38044;45.148;39.604;2024-02-15T02:10:40;100886.41;;;6.61;88.69
52032;BME280;38044;45.148;39.604;2024-02-15T02:13:06;100907.75;;;6.61;88.52
52032;BME280;38044;45.148;39.604;2024-02-15T02:15:32;100916.84;;;6.60;88.92
52032;BME280;38044;45.148;39.604;2024-02-15T02:18:00;100913.63;;;6.58;88.61
52032;BME280;38044;45.148;39.604;2024-02-15T02:20:26;100916.56;;;6.56;88.67
52032;BME280;38044;45.148;39.604;2024-02-15T02:22:53;100928.59;;;6.59;88.76
52032;BME280;38044;45.148;39.604;2024-02-15T02:25:24;100925.84;;;6.48;88.63
52032;BME280;38044;45.148;39.604;2024-02-15T02:27:53;100925.13;;;6.58;88.34
52032;BME280;38044;45.148;39.604;2024-02-15T02:30:20;100937.16;;;6.61;88.29
52032;BME280;38044;45.148;39.604;2024-02-15T02:32:48;100939.47;;;6.52;88.33
52032;BME280;38044;45.148;39.604;2024-02-15T02:35:14;100932.78;;;6.49;88.03
52032;BME280;38044;45.148;39.604;2024-02-15T02:37:42;100934.13;;;6.47;87.87
52032;BME280;38044;45.148;39.604;2024-02-15T02:40:09;100948.22;;;6.42;87.77
52032;BME280;38044;45.148;39.604;2024-02-15T02:42:55;100951.53;;;6.54;88.09
52032;BME280;38044;45.148;39.604;2024-02-15T02:45:27;100947.47;;;6.47;87.15
52032;BME280;38044;45.148;39.604;2024-02-15T02:47:54;100944.91;;;6.30;87.64
52032;BME280;38044;45.148;39.604;2024-02-15T02:50:23;100954.59;;;6.36;87.73
52032;BME280;38044;45.148;39.604;2024-02-15T02:52:50;100964.13;;;6.32;87.36
52032;BME280;38044;45.148;39.604;2024-02-15T02:55:16;100958.78;;;6.32;87.53
52032;BME280;38044;45.148;39.604;2024-02-15T02:57:42;100952.81;;;6.20;87.23
52032;BME280;38044;45.148;39.604;2024-02-15T03:00:15;100951.56;;;6.27;87.08
52032;BME280;38044;45.148;39.604;2024-02-15T03:02:46;100964.63;;;6.24;86.99
52032;BME280;38044;45.148;39.604;2024-02-15T03:05:12;100976.34;;;6.23;86.69
52032;BME280;38044;45.148;39.604;2024-02-15T03:07:41;100965.66;;;6.23;86.33
52032;BME280;38044;45.148;39.604;2024-02-15T03:10:07;100969.28;;;6.12;86.86
52032;BME280;38044;45.148;39.604;2024-02-15T03:12:40;100961.25;;;6.12;87.10
52032;BME280;38044;45.148;39.604;2024-02-15T03:15:08;100965.50;;;6.07;87.08
52032;BME280;38044;45.148;39.604;2024-02-15T03:17:37;100952.41;;;6.06;86.94
52032;BME280;38044;45.148;39.604;2024-02-15T03:20:08;100964.94;;;6.05;86.78
52032;BME280;38044;45.148;39.604;2024-02-15T03:22:38;100959.00;;;5.98;86.71
52032;BME280;38044;45.148;39.604;2024-02-15T03:25:07;100958.19;;;5.98;86.66
52032;BME280;38044;45.148;39.604;2024-02-15T03:27:36;100957.94;;;5.99;86.65
52032;BME280;38044;45.148;39.604;2024-02-15T03:30:06;100969.91;;;5.97;86.65
52032;BME280;38044;45.148;39.604;2024-02-15T03:32:32;100971.13;;;5.89;86.58
52032;BME280;38044;45.148;39.604;2024-02-15T03:34:58;100970.31;;;5.88;86.71
52032;BME280;38044;45.148;39.604;2024-02-15T03:37:30;100971.22;;;5.94;86.22
52032;BME280;38044;45.148;39.604;2024-02-15T03:39:55;100962.38;;;5.72;86.60
52032;BME280;38044;45.148;39.604;2024-02-15T03:42:25;100980.94;;;5.83;86.59
52032;BME280;38044;45.148;39.604;2024-02-15T03:44:54;100979.59;;;5.81;86.61
52032;BME280;38044;45.148;39.604;2024-02-15T03:47:20;100975.28;;;5.80;87.17
52032;BME280;38044;45.148;39.604;2024-02-15T03:49:46;100950.69;;;5.73;87.21
52032;BME280;38044;45.148;39.604;2024-02-15T03:52:12;100974.72;;;5.78;86.81
52032;BME280;38044;45.148;39.604;2024-02-15T03:54:38;100966.69;;;5.73;87.10
52032;BME280;38044;45.148;39.604;2024-02-15T03:57:04;100976.22;;;5.69;87.09
52032;BME280;38044;45.148;39.604;2024-02-15T03:59:31;100973.00;;;5.67;87.32
52032;BME280;38044;45.148;39.604;2024-02-15T04:01:57;100973.47;;;5.63;87.32
52032;BME280;38044;45.148;39.604;2024-02-15T04:04:23;100981.25;;;5.65;87.56
52032;BME280;38044;45.148;39.604;2024-02-15T04:06:50;100973.81;;;5.67;87.76
52032;BME280;38044;45.148;39.604;2024-02-15T04:09:17;100979.94;;;5.68;87.49
52032;BME280;38044;45.148;39.604;2024-02-15T04:11:49;100982.06;;;5.65;87.51
52032;BME280;38044;45.148;39.604;2024-02-15T04:14:19;100993.72;;;5.59;87.83
52032;BME280;38044;45.148;39.604;2024-02-15T04:16:45;101000.16;;;5.63;87.60
52032;BME280;38044;45.148;39.604;2024-02-15T04:19:11;100989.09;;;5.55;87.41
52032;BME280;38044;45.148;39.604;2024-02-15T04:21:37;100996.94;;;5.61;87.31
52032;BME280;38044;45.148;39.604;2024-02-15T04:24:04;100989.97;;;5.60;87.23
52032;BME280;38044;45.148;39.604;2024-02-15T04:26:30;100993.34;;;5.51;87.10
52032;BME280;38044;45.148;39.604;2024-02-15T04:28:58;101000.53;;;5.50;87.16
52032;BME280;38044;45.148;39.604;2024-02-15T04:31:24;100984.94;;;5.42;87.10
52032;BME280;38044;45.148;39.604;2024-02-15T04:33:54;101012.50;;;5.48;87.06
52032;BME280;38044;45.148;39.604;2024-02-15T04:36:20;101007.97;;;5.48;87.49
52032;BME280;38044;45.148;39.604;2024-02-15T04:38:53;101009.03;;;5.47;87.62
52032;BME280;38044;45.148;39.604;2024-02-15T04:41:19;101012.19;;;5.44;87.78
52032;BME280;38044;45.148;39.604;2024-02-15T04:43:47;101011.19;;;5.50;87.52
52032;BME280;38044;45.148;39.604;2024-02-15T04:46:13;101014.50;;;5.40;87.87
52032;BME280;38044;45.148;39.604;2024-02-15T04:48:40;100999.56;;;5.39;87.50
52032;BME280;38044;45.148;39.604;2024-02-15T04:51:10;101014.78;;;5.39;87.42
52032;BME280;38044;45.148;39.604;2024-02-15T04:53:38;101018.06;;;5.46;87.54
52032;BME280;38044;45.148;39.604;2024-02-15T04:56:07;101018.06;;;5.46;87.42
52032;BME280;38044;45.148;39.604;2024-02-15T04:58:40;101019.13;;;5.45;87.55
52032;BME280;38044;45.148;39.604;2024-02-15T05:01:17;101019.50;;;5.54;87.54
52032;BME280;38044;45.148;39.604;2024-02-15T05:03:45;101022.16;;;5.54;87.12
52032;BME280;38044;45.148;39.604;2024-02-15T05:06:12;101019.69;;;5.47;87.23
52032;BME280;38044;45.148;39.604;2024-02-15T05:08:41;101033.56;;;5.49;87.05
52032;BME280;38044;45.148;39.604;2024-02-15T05:11:10;101021.22;;;5.43;86.96
52032;BME280;38044;45.148;39.604;2024-02-15T05:13:48;101042.13;;;5.51;86.42
52032;BME280;38044;45.148;39.604;2024-02-15T05:16:17;101035.50;;;5.54;86.70
52032;BME280;38044;45.148;39.604;2024-02-15T05:18:44;101029.94;;;5.55;86.49
52032;BME280;38044;45.148;39.604;2024-02-15T05:21:11;101045.44;;;5.58;86.44
52032;BME280;38044;45.148;39.604;2024-02-15T05:23:37;101051.31;;;5.60;85.58
52032;BME280;38044;45.148;39.604;2024-02-15T05:26:06;101056.16;;;5.63;85.92
52032;BME280;38044;45.148;39.604;2024-02-15T05:28:32;101038.63;;;5.68;85.27
52032;BME280;38044;45.148;39.604;2024-02-15T05:31:20;101058.31;;;5.83;85.28
52032;BME280;38044;45.148;39.604;2024-02-15T05:33:46;101052.53;;;5.70;85.13
52032;BME280;38044;45.148;39.604;2024-02-15T05:36:13;101062.38;;;5.69;85.26
52032;BME280;38044;45.148;39.604;2024-02-15T05:38:40;101056.44;;;5.62;85.20
52032;BME280;38044;45.148;39.604;2024-02-15T05:41:06;101059.22;;;5.72;84.34
52032;BME280;38044;45.148;39.604;2024-02-15T05:43:36;101083.06;;;5.79;84.32
52032;BME280;38044;45.148;39.604;2024-02-15T05:46:03;101084.38;;;5.76;84.23
52032;BME280;38044;45.148;39.604;2024-02-15T05:48:29;101084.59;;;5.75;84.15
52032;BME280;38044;45.148;39.604;2024-02-15T05:50:55;101087.13;;;5.81;84.10
52032;BME280;38044;45.148;39.604;2024-02-15T05:53:23;101085.03;;;5.67;84.30
52032;BME280;38044;45.148;39.604;2024-02-15T05:55:49;101096.97;;;5.81;84.19
52032;BME280;38044;45.148;39.604;2024-02-15T05:58:15;101095.50;;;5.90;83.41
52032;BME280;38044;45.148;39.604;2024-02-15T06:00:42;101098.16;;;5.90;83.77
52032;BME280;38044;45.148;39.604;2024-02-15T06:03:16;101100.38;;;5.93;83.38
52032;BME280;38044;45.148;39.604;2024-02-15T06:05:43;101092.38;;;5.93;83.25
52032;BME280;38044;45.148;39.604;2024-02-15T06:08:09;101101.56;;;6.02;83.01
52032;BME280;38044;45.148;39.604;2024-02-15T06:10:38;101081.78;;;5.98;82.56
52032;BME280;38044;45.148;39.604;2024-02-15T06:13:05;101097.22;;;5.96;82.81
52032;BME280;38044;45.148;39.604;2024-02-15T06:15:30;101102.19;;;6.09;82.17
52032;BME280;38044;45.148;39.604;2024-02-15T06:17:57;101080.59;;;6.11;82.55
52032;BME280;38044;45.148;39.604;2024-02-15T06:20:23;101094.56;;;6.18;82.15
52032;BME280;38044;45.148;39.604;2024-02-15T06:22:50;101088.53;;;6.06;81.95
52032;BME280;38044;45.148;39.604;2024-02-15T06:25:17;101090.03;;;6.19;81.66
52032;BME280;38044;45.148;39.604;2024-02-15T06:27:47;101099.84;;;6.13;81.63
52032;BME280;38044;45.148;39.604;2024-02-15T06:30:14;101099.06;;;6.18;81.16
52032;BME280;38044;45.148;39.604;2024-02-15T06:32:59;101078.59;;;6.01;81.56
52032;BME280;38044;45.148;39.604;2024-02-15T06:35:43;101114.56;;;6.16;81.89
52032;BME280;38044;45.148;39.604;2024-02-15T06:38:28;101123.38;;;6.16;81.83
52032;BME280;38044;45.148;39.604;2024-02-15T06:41:13;101101.22;;;6.16;80.82
52032;BME280;38044;45.148;39.604;2024-02-15T06:43:39;101106.28;;;6.17;80.84
52032;BME280;38044;45.148;39.604;2024-02-15T06:46:08;101114.66;;;6.26;81.25
52032;BME280;38044;45.148;39.604;2024-02-15T06:48:36;101120.56;;;6.28;80.97
52032;BME280;38044;45.148;39.604;2024-02-15T06:51:02;101131.44;;;6.43;80.82
52032;BME280;38044;45.148;39.604;2024-02-15T06:53:29;101119.50;;;6.51;80.53
52032;BME280;38044;45.148;39.604;2024-02-15T06:55:57;101125.34;;;6.48;80.09
52032;BME280;38044;45.148;39.604;2024-02-15T06:58:22;101127.09;;;6.59;79.51
52032;BME280;38044;45.148;39.604;2024-02-15T07:00:48;101132.28;;;6.71;79.94
52032;BME280;38044;45.148;39.604;2024-02-15T07:03:17;101115.25;;;6.77;78.85
52032;BME280;38044;45.148;39.604;2024-02-15T07:05:43;101117.25;;;6.92;78.55
52032;BME280;38044;45.148;39.604;2024-02-15T07:08:09;101121.06;;;6.96;77.85
52032;BME280;38044;45.148;39.604;2024-02-15T07:10:39;101113.91;;;7.07;78.08
52032;BME280;38044;45.148;39.604;2024-02-15T07:13:05;101132.69;;;7.12;77.63
52032;BME280;38044;45.148;39.604;2024-02-15T07:15:33;101121.28;;;7.21;76.98
52032;BME280;38044;45.148;39.604;2024-02-15T07:18:05;101098.91;;;7.00;77.32
52032;BME280;38044;45.148;39.604;2024-02-15T07:20:35;101114.81;;;7.17;77.28
52032;BME280;38044;45.148;39.604;2024-02-15T07:23:01;101109.00;;;7.26;76.76
52032;BME280;38044;45.148;39.604;2024-02-15T07:25:27;101122.75;;;7.39;76.64
52032;BME280;38044;45.148;39.604;2024-02-15T07:27:53;101103.00;;;7.45;75.62
52032;BME280;38044;45.148;39.604;2024-02-15T07:30:20;101124.19;;;7.52;75.30
52032;BME280;38044;45.148;39.604;2024-02-15T07:32:46;101111.69;;;7.63;75.36
52032;BME280;38044;45.148;39.604;2024-02-15T07:35:11;101102.78;;;7.95;74.98
52032;BME280;38044;45.148;39.604;2024-02-15T07:37:39;101088.09;;;8.02;73.25
52032;BME280;38044;45.148;39.604;2024-02-15T07:40:16;101087.59;;;8.05;73.95
52032;BME280;38044;45.148;39.604;2024-02-15T07:42:42;101105.50;;;8.00;73.34
52032;BME280;38044;45.148;39.604;2024-02-15T07:45:08;101099.63;;;8.03;73.34
52032;BME280;38044;45.148;39.604;2024-02-15T07:47:36;101095.81;;;7.94;73.44
52032;BME280;38044;45.148;39.604;2024-02-15T07:50:02;101114.09;;;8.02;73.62
52032;BME280;38044;45.148;39.604;2024-02-15T07:52:28;101114.59;;;8.04;72.74
52032;BME280;38044;45.148;39.604;2024-02-15T07:54:54;101117.31;;;8.09;73.13
52032;BME280;38044;45.148;39.604;2024-02-15T07:57:20;101090.50;;;8.04;72.75
52032;BME280;38044;45.148;39.604;2024-02-15T07:59:46;101102.34;;;8.18;72.80
52032;BME280;38044;45.148;39.604;2024-02-15T08:02:13;101095.94;;;8.19;nan
52032;BME280;38044;45.148;39.604;2024-02-15T08:04:42;101100.22;;;8.20;72.03
52032;BME280;38044;45.148;39.604;2024-02-15T08:07:10;101114.19;;;8.32;72.26
52032;BME280;38044;45.148;39.604;2024-02-15T08:09:37;101109.13;;;8.31;71.64
52032;BME280;38044;45.148;39.604;2024-02-15T08:12:03;101124.47;;;8.46;71.62
52032;BME280;38044;45.148;39.604;2024-02-15T08:14:29;101126.69;;;8.69;71.10
52032;BME280;38044;45.148;39.604;2024-02-15T08:16:56;101126.69;;;8.74;70.90
52032;BME280;38044;45.148;39.604;2024-02-15T08:19:22;101113.63;;;8.93;70.08
52032;BME280;38044;45.148;39.604;2024-02-15T08:21:48;101127.00;;;8.88;70.25
52032;BME280;38044;45.148;39.604;2024-02-15T08:24:16;101126.22;;;9.08;69.49
52032;BME280;38044;45.148;39.604;2024-02-15T08:26:42;101140.63;;;8.71;70.74
52032;BME280;38044;45.148;39.604;2024-02-15T08:29:09;101131.28;;;8.84;70.72
52032;BME280;38044;45.148;39.604;2024-02-15T08:31:35;101131.31;;;8.94;70.41
52032;BME280;38044;45.148;39.604;2024-02-15T08:34:02;101117.88;;;8.94;69.90
52032;BME280;38044;45.148;39.604;2024-02-15T08:36:31;101111.75;;;9.19;69.32
52032;BME280;38044;45.148;39.604;2024-02-15T08:38:56;101131.06;;;9.57;68.32
52032;BME280;38044;45.148;39.604;2024-02-15T08:41:22;101109.59;;;9.62;68.40
52032;BME280;38044;45.148;39.604;2024-02-15T08:43:52;101128.09;;;9.74;67.13
52032;BME280;38044;45.148;39.604;2024-02-15T08:46:19;101107.16;;;9.61;66.41
52032;BME280;38044;45.148;39.604;2024-02-15T08:48:48;101114.16;;;9.52;67.78
52032;BME280;38044;45.148;39.604;2024-02-15T08:51:13;101118.44;;;9.73;66.62
52032;BME280;38044;45.148;39.604;2024-02-15T08:53:41;101108.34;;;10.25;65.31
52032;BME280;38044;45.148;39.604;2024-02-15T08:56:06;101099.59;;;10.58;64.15
52032;BME280;38044;45.148;39.604;2024-02-15T08:58:35;101121.72;;;10.45;64.08
52032;BME280;38044;45.148;39.604;2024-02-15T09:01:01;101107.91;;;9.92;65.20
52032;BME280;38044;45.148;39.604;2024-02-15T09:03:28;101105.75;;;9.94;65.66
52032;BME280;38044;45.148;39.604;2024-02-15T09:05:54;101106.88;;;9.78;66.25
52032;BME280;38044;45.148;39.604;2024-02-15T09:08:20;101098.78;;;9.93;65.92
52032;BME280;38044;45.148;39.604;2024-02-15T09:10:47;101114.66;;;9.69;65.35
52032;BME280;38044;45.148;39.604;2024-02-15T09:13:15;101099.94;;;9.15;67.39
52032;BME280;38044;45.148;39.604;2024-02-15T09:15:41;101118.47;;;9.22;67.73
52032;BME280;38044;45.148;39.604;2024-02-15T09:18:08;101116.56;;;9.12;68.10
52032;BME280;38044;45.148;39.604;2024-02-15T09:20:35;101099.38;;;8.98;67.73
52032;BME280;38044;45.148;39.604;2024-02-15T09:23:03;101111.41;;;8.75;69.16
52032;BME280;38044;45.148;39.604;2024-02-15T09:25:37;101092.66;;;8.80;68.68
52032;BME280;38044;45.148;39.604;2024-02-15T09:28:03;101110.94;;;8.93;69.18
52032;BME280;38044;45.148;39.604;2024-02-15T09:30:29;101112.22;;;8.70;69.21
52032;BME280;38044;45.148;39.604;2024-02-15T09:32:57;101106.56;;;8.62;69.73
52032;BME280;38044;45.148;39.604;2024-02-15T09:35:23;101108.97;;;8.53;69.76
52032;BME280;38044;45.148;39.604;2024-02-15T09:37:50;101089.28;;;8.32;70.26
52032;BME280;38044;45.148;39.604;2024-02-15T09:40:16;101106.25;;;8.48;70.02
52032;BME280;38044;45.148;39.604;2024-02-15T09:42:44;101103.34;;;8.60;69.76
52032;BME280;38044;45.148;39.604;2024-02-15T09:45:12;101107.94;;;8.79;69.83
52032;BME280;38044;45.148;39.604;2024-02-15T09:47:39;101113.00;;;8.66;69.12
52032;BME280;38044;45.148;39.604;2024-02-15T09:50:08;101106.31;;;8.68;68.88
52032;BME280;38044;45.148;39.604;2024-02-15T09:52:40;101100.41;;;8.66;69.15
52032;BME280;38044;45.148;39.604;2024-02-15T09:55:07;101110.13;;;8.98;68.00
52032;BME280;38044;45.148;39.604;2024-02-15T09:57:42;101111.19;;;8.82;67.58
52032;BME280;38044;45.148;39.604;2024-02-15T10:00:10;101118.63;;;8.69;68.65
52032;BME280;38044;45.148;39.604;2024-02-15T10:02:51;101116.19;;;8.47;68.32
52032;BME280;38044;45.148;39.604;2024-02-15T10:05:26;101091.78;;;8.39;68.73
52032;BME280;38044;45.148;39.604;2024-02-15T10:07:52;101100.81;;;8.27;68.74
52032;BME280;38044;45.148;39.604;2024-02-15T10:12:53;101106.78;;;8.40;69.48
52032;BME280;38044;45.148;39.604;2024-02-15T10:15:37;101113.13;;;8.28;70.32
52032;BME280;38044;45.148;39.604;2024-02-15T10:18:10;101104.00;;;8.19;69.33
52032;BME280;38044;45.148;39.604;2024-02-15T10:20:40;101104.44;;;8.06;69.82
52032;BME280;38044;45.148;39.604;2024-02-15T10:23:14;101106.06;;;8.12;69.99
52032;BME280;38044;45.148;39.604;2024-02-15T10:25:42;101120.97;;;8.40;69.75
52032;BME280;38044;45.148;39.604;2024-02-15T10:28:12;101118.44;;;8.18;69.82
52032;BME280;38044;45.148;39.604;2024-02-15T10:30:45;101110.38;;;8.13;69.62
52032;BME280;38044;45.148;39.604;2024-02-15T10:33:31;101116.28;;;8.15;70.35
52032;BME280;38044;45.148;39.604;2024-02-15T10:36:07;101101.31;;;8.19;70.57
52032;BME280;38044;45.148;39.604;2024-02-15T10:38:37;101098.66;;;8.29;69.89
52032;BME280;38044;45.148;39.604;2024-02-15T10:41:04;101108.13;;;8.52;69.15
52032;BME280;38044;45.148;39.604;2024-02-15T10:43:34;101113.34;;;8.85;67.69
52032;BME280;38044;45.148;39.604;2024-02-15T10:46:00;101107.91;;;8.69;67.72
52032;BME280;38044;45.148;39.604;2024-02-15T10:48:27;101102.31;;;8.81;66.81
52032;BME280;38044;45.148;39.604;2024-02-15T10:50:56;101112.50;;;8.74;67.20
52032;BME280;38044;45.148;39.604;2024-02-15T10:53:28;101110.56;;;8.54;67.70
52032;BME280;38044;45.148;39.604;2024-02-15T10:56:17;101110.69;;;8.27;68.46
52032;BME280;38044;45.148;39.604;2024-02-15T10:59:00;101098.03;;;8.12;68.79
52032;BME280;38044;45.148;39.604;2024-02-15T11:01:32;101094.72;;;7.89;69.26
52032;BME280;38044;45.148;39.604;2024-02-15T11:04:07;101104.41;;;8.01;69.09
52032;BME280;38044;45.148;39.604;2024-02-15T11:06:37;101106.03;;;8.02;69.95
52032;BME280;38044;45.148;39.604;2024-02-15T11:09:06;101121.09;;;8.13;68.74
52032;BME280;38044;45.148;39.604;2024-02-15T11:11:33;101110.28;;;7.93;69.25
52032;BME280;38044;45.148;39.604;2024-02-15T11:16:48;101098.75;;;7.92;68.90
52032;BME280;38044;45.148;39.604;2024-02-15T11:22:00;101113.28;;;7.64;70.21
52032;BME280;38044;45.148;39.604;2024-02-15T11:24:31;101107.38;;;7.57;69.93
52032;BME280;38044;45.148;39.604;2024-02-15T11:27:06;101125.03;;;7.58;69.87
52032;BME280;38044;45.148;39.604;2024-02-15T11:29:56;101130.31;;;7.48;70.27
52032;BME280;38044;45.148;39.604;2024-02-15T11:32:40;101134.56;;;7.43;70.84
52032;BME280;38044;45.148;39.604;2024-02-15T11:35:10;101126.59;;;7.16;71.42
52032;BME280;38044;45.148;39.604;2024-02-15T11:42:40;101125.56;;;6.68;73.07
52032;BME280;38044;45.148;39.604;2024-02-15T11:45:06;101125.50;;;6.85;72.41
52032;BME280;38044;45.148;39.604;2024-02-15T11:47:40;101112.50;;;6.72;72.45
52032;BME280;38044;45.148;39.604;2024-02-15T11:50:09;101131.22;;;6.72;72.31
52032;BME280;38044;45.148;39.604;2024-02-15T11:52:51;101143.19;;;6.64;73.30
52032;BME280;38044;45.148;39.604;2024-02-15T11:55:23;101128.69;;;6.60;73.16
52032;BME280;38044;45.148;39.604;2024-02-15T11:58:00;101144.91;;;6.53;72.81
52032;BME280;38044;45.148;39.604;2024-02-15T12:00:46;101128.09;;;6.31;73.42
52032;BME280;38044;45.148;39.604;2024-02-15T12:03:31;101141.25;;;6.16;74.15
52032;BME280;38044;45.148;39.604;2024-02-15T12:06:18;101148.44;;;6.37;74.80
52032;BME280;38044;45.148;39.604;2024-02-15T12:09:02;101120.00;;;6.26;73.83
52032;BME280;38044;45.148;39.604;2024-02-15T12:11:47;101141.78;;;6.18;74.05
52032;BME280;38044;45.148;39.604;2024-02-15T12:14:31;101130.91;;;6.02;74.60
52032;BME280;38044;45.148;39.604;2024-02-15T12:17:15;101130.03;;;5.97;75.21
52032;BME280;38044;45.148;39.604;2024-02-15T12:20:02;101121.53;;;5.83;75.56
52032;BME280;38044;45.148;39.604;2024-02-15T12:22:35;101139.94;;;6.18;75.33
52032;BME280;38044;45.148;39.604;2024-02-15T12:25:06;101115.53;;;6.09;74.78
52032;BME280;38044;45.148;39.604;2024-02-15T12:27:39;101132.66;;;6.14;74.54
52032;BME280;38044;45.148;39.604;2024-02-15T12:30:05;101123.56;;;6.09;74.95
52032;BME280;38044;45.148;39.604;2024-02-15T12:32:32;101129.19;;;6.13;74.46
52032;BME280;38044;45.148;39.604;2024-02-15T12:35:12;101135.94;;;6.21;74.35
52032;BME280;38044;45.148;39.604;2024-02-15T12:38:01;101121.88;;;6.25;74.33
52032;BME280;38044;45.148;39.604;2024-02-15T12:40:35;101138.50;;;6.11;74.57
52032;BME280;38044;45.148;39.604;2024-02-15T12:43:04;101134.16;;;6.04;74.99
52032;BME280;38044;45.148;39.604;2024-02-15T12:45:32;101139.22;;;6.06;74.76
52032;BME280;38044;45.148;39.604;2024-02-15T12:48:04;101144.75;;;5.99;74.55
52032;BME280;38044;45.148;39.604;2024-02-15T12:50:31;101142.59;;;5.96;74.88
52032;BME280;38044;45.148;39.604;2024-02-15T12:52:58;101137.25;;;5.96;75.11
52032;BME280;38044;45.148;39.604;2024-02-15T12:55:37;101144.91;;;6.31;73.94
52032;BME280;38044;45.148;39.604;2024-02-15T12:58:05;101150.16;;;6.04;74.58
52032;BME280;38044;45.148;39.604;2024-02-15T13:00:35;101143.06;;;5.93;74.06
52032;BME280;38044;45.148;39.604;2024-02-15T13:03:08;101157.69;;;5.91;73.99
52032;BME280;38044;45.148;39.604;2024-02-15T13:05:37;101157.28;;;5.82;73.72
52032;BME280;38044;45.148;39.604;2024-02-15T13:08:03;101168.13;;;5.75;74.64
52032;BME280;38044;45.148;39.604;2024-02-15T13:10:38;101173.47;;;5.58;74.34
52032;BME280;38044;45.148;39.604;2024-02-15T13:13:07;101174.56;;;5.46;74.61